createdAt,value
2019-02-19T00:01:57.855Z,0.60
2019-02-19T00:04:05.398Z,0.53
2019-02-19T00:06:15.050Z,0.60
2019-02-19T00:08:24.304Z,0.80
2019-02-19T00:10:33.733Z,0.83
2019-02-19T00:12:45.921Z,0.70
2019-02-19T00:14:57.471Z,0.40
2019-02-19T00:17:06.506Z,0.50
2019-02-19T00:19:22.915Z,0.70
2019-02-19T00:21:35.802Z,0.47
2019-02-19T00:23:46.487Z,0.50
2019-02-19T00:25:57.394Z,0.80
2019-02-19T00:28:14.903Z,0.50
2019-02-19T00:30:24.205Z,0.70
2019-02-19T00:32:32.713Z,0.50
2019-02-19T00:34:42.180Z,0.57
2019-02-19T00:36:53.993Z,0.43
2019-02-19T00:39:05.770Z,0.63
2019-02-19T00:41:31.905Z,0.80
2019-02-19T00:43:39.923Z,0.67
2019-02-19T00:45:54.239Z,0.67
2019-02-19T00:48:08.146Z,0.70
2019-02-19T00:50:54.166Z,0.50
2019-02-19T00:52:39.014Z,0.50
2019-02-19T00:54:48.585Z,0.90
2019-02-19T00:56:57.974Z,0.60
2019-02-19T00:59:08.211Z,0.60
2019-02-19T01:01:21.405Z,0.73
2019-02-19T01:06:09.133Z,0.80
2019-02-19T01:08:24.097Z,1.10
2019-02-19T01:10:35.732Z,0.90
2019-02-19T01:12:46.123Z,1.27
2019-02-19T01:14:58.370Z,0.80
2019-02-19T01:17:13.521Z,1.10
2019-02-19T01:19:27.365Z,1.20
2019-02-19T01:21:40.282Z,1.10
2019-02-19T01:23:56.902Z,1.70
2019-02-19T01:26:10.348Z,1.30
2019-02-19T01:28:23.081Z,1.50
2019-02-19T01:30:36.103Z,1.50
2019-02-19T01:32:57.324Z,1.40
2019-02-19T01:37:27.687Z,1.60
2019-02-19T01:39:35.899Z,2.70
2019-02-19T01:41:47.682Z,1.70
2019-02-19T01:43:59.770Z,2.40
2019-02-19T01:46:21.604Z,2.05
2019-02-19T01:48:38.359Z,1.97
2019-02-19T01:50:48.652Z,1.80
2019-02-19T01:53:08.350Z,2.10
2019-02-19T01:55:23.011Z,2.00
2019-02-19T01:57:38.053Z,1.83
2019-02-19T01:59:49.512Z,2.03
2019-02-19T02:02:05.876Z,2.37
2019-02-19T02:04:16.431Z,2.60
2019-02-19T02:06:27.253Z,2.70
2019-02-19T02:08:40.359Z,3.17
2019-02-19T02:10:54.888Z,2.77
2019-02-19T02:13:09.707Z,2.60
2019-02-19T02:15:33.441Z,2.30
2019-02-19T02:17:51.269Z,1.90
2019-02-19T02:20:06.713Z,2.00
2019-02-19T02:22:23.893Z,1.97
2019-02-19T02:24:31.904Z,1.73
2019-02-19T02:26:42.810Z,1.77
2019-02-19T02:29:00.053Z,1.63
2019-02-19T02:31:09.032Z,1.60
2019-02-19T02:33:18.914Z,1.50
2019-02-19T02:35:28.408Z,1.80
2019-02-19T02:37:38.396Z,1.33
2019-02-19T02:39:53.054Z,1.20
2019-02-19T02:42:02.318Z,1.40
2019-02-19T02:44:12.907Z,1.47
2019-02-19T02:46:37.723Z,1.20
2019-02-19T02:48:50.973Z,1.37
2019-02-19T02:51:06.992Z,1.30
2019-02-19T02:53:22.676Z,1.20
2019-02-19T02:55:33.712Z,1.00
2019-02-19T02:57:50.863Z,1.40
2019-02-19T02:59:59.490Z,1.20
2019-02-19T03:02:15.550Z,1.23
2019-02-19T03:04:24.640Z,1.30
2019-02-19T03:07:03.385Z,1.30
2019-02-19T03:09:13.548Z,1.40
2019-02-19T03:11:26.219Z,1.20
2019-02-19T03:13:36.520Z,1.20
2019-02-19T03:15:47.189Z,1.00
2019-02-19T03:18:00.180Z,1.10
2019-02-19T03:20:10.860Z,1.20
2019-02-19T03:22:20.047Z,1.50
2019-02-19T03:24:27.913Z,0.83
2019-02-19T03:26:41.514Z,1.03
2019-02-19T03:28:52.858Z,0.80
2019-02-19T03:31:02.405Z,1.00
2019-02-19T03:33:13.367Z,1.23
2019-02-19T03:35:22.562Z,1.00
2019-02-19T03:37:33.767Z,0.90
2019-02-19T03:39:43.046Z,0.93
2019-02-19T03:41:56.220Z,0.80
2019-02-19T03:44:06.757Z,0.80
2019-02-19T03:46:17.360Z,0.80
2019-02-19T03:48:27.747Z,0.83
2019-02-19T03:50:43.627Z,1.00
2019-02-19T03:52:54.904Z,0.90
2019-02-19T03:55:04.366Z,0.90
2019-02-19T03:57:15.297Z,0.90
2019-02-19T03:59:27.495Z,0.90
2019-02-19T04:01:39.081Z,0.80
2019-02-19T04:03:51.769Z,0.90
2019-02-19T04:06:03.932Z,1.07
2019-02-19T04:08:18.283Z,0.87
2019-02-19T04:10:27.123Z,0.87
2019-02-19T04:12:37.863Z,0.90
2019-02-19T04:14:50.320Z,1.00
2019-02-19T04:16:59.919Z,0.80
2019-02-19T04:19:23.300Z,0.70
2019-02-19T04:21:33.561Z,0.80
2019-02-19T04:23:46.181Z,0.83
2019-02-19T04:25:58.270Z,0.90
2019-02-19T04:28:14.134Z,0.60
2019-02-19T04:30:27.698Z,0.90
2019-02-19T04:32:40.010Z,0.57
2019-02-19T04:34:50.188Z,0.60
2019-02-19T04:36:59.743Z,0.60
2019-02-19T04:39:09.956Z,0.70
2019-02-19T04:41:20.336Z,0.60
2019-02-19T04:43:30.293Z,0.70
2019-02-19T04:45:38.424Z,0.80
2019-02-19T04:47:51.386Z,0.97
2019-02-19T04:50:00.517Z,0.70
2019-02-19T04:52:10.820Z,0.80
2019-02-19T04:54:20.019Z,0.70
2019-02-19T04:56:31.392Z,0.70
2019-02-19T04:58:41.928Z,0.77
2019-02-19T05:00:53.372Z,0.60
2019-02-19T05:03:04.450Z,0.63
2019-02-19T05:05:19.579Z,0.60
2019-02-19T05:07:31.332Z,0.70
2019-02-19T05:09:39.666Z,0.70
2019-02-19T05:11:50.278Z,0.80
2019-02-19T05:14:02.033Z,0.60
2019-02-19T05:16:14.307Z,0.70
2019-02-19T05:18:28.779Z,0.70
2019-02-19T05:20:41.035Z,0.60
2019-02-19T05:22:51.800Z,0.70
2019-02-19T05:25:01.854Z,0.80
2019-02-19T05:27:12.602Z,0.70
2019-02-19T05:29:35.274Z,0.70
2019-02-19T05:31:45.524Z,0.67
2019-02-19T05:33:58.058Z,0.70
2019-02-19T05:38:39.223Z,0.60
2019-02-19T05:40:49.932Z,0.60
2019-02-19T05:43:01.599Z,0.83
2019-02-19T05:45:09.833Z,0.97
2019-02-19T05:47:18.028Z,0.67
2019-02-19T05:49:25.459Z,0.80
2019-02-19T05:51:39.659Z,0.93
2019-02-19T05:53:50.978Z,1.33
2019-02-19T05:55:58.141Z,0.80
2019-02-19T05:58:06.141Z,0.80
2019-02-19T06:00:15.893Z,0.80
2019-02-19T06:05:10.557Z,0.70
2019-02-19T06:07:17.899Z,0.70
2019-02-19T06:09:24.907Z,0.70
2019-02-19T06:11:33.080Z,0.80
2019-02-19T06:13:40.513Z,0.70
2019-02-19T06:15:48.425Z,0.70
2019-02-19T06:17:56.122Z,1.23
2019-02-19T06:20:31.082Z,0.70
2019-02-19T06:22:37.401Z,0.70
2019-02-19T06:24:45.458Z,0.87
2019-02-19T06:27:09.762Z,0.60
2019-02-19T06:31:56.542Z,0.90
2019-02-19T06:34:05.939Z,1.07
2019-02-19T06:36:13.044Z,0.73
2019-02-19T06:38:21.738Z,0.70
2019-02-19T06:40:30.308Z,0.67
2019-02-19T06:42:37.935Z,0.70
2019-02-19T06:44:45.460Z,0.60
2019-02-19T06:46:52.874Z,0.70
2019-02-19T06:49:00.056Z,0.80
2019-02-19T06:51:07.342Z,0.60
2019-02-19T06:53:15.244Z,0.80
2019-02-19T06:55:22.611Z,0.80
2019-02-19T06:57:29.828Z,0.80
2019-02-19T06:59:44.447Z,0.90
2019-02-19T07:02:12.879Z,0.57
2019-02-19T07:04:24.366Z,0.70
2019-02-19T07:06:32.880Z,0.73
2019-02-19T07:08:40.128Z,1.10
2019-02-19T07:10:51.081Z,0.53
2019-02-19T07:13:03.215Z,0.80
2019-02-19T07:15:10.658Z,0.50
2019-02-19T07:17:27.256Z,0.60
2019-02-19T07:19:50.652Z,0.60
2019-02-19T07:22:00.516Z,0.63
2019-02-19T07:24:13.975Z,0.60
2019-02-19T07:26:33.010Z,0.60
2019-02-19T07:29:08.283Z,0.77
2019-02-19T07:31:30.483Z,0.60
2019-02-19T07:34:05.186Z,0.70
2019-02-19T07:36:22.129Z,0.60
2019-02-19T07:38:39.785Z,0.70
2019-02-19T07:43:38.767Z,0.50
2019-02-19T07:45:46.178Z,0.60
2019-02-19T07:48:07.868Z,0.60
2019-02-19T07:50:15.265Z,0.50
2019-02-19T07:52:38.911Z,0.63
2019-02-19T07:55:07.901Z,0.60
2019-02-19T07:57:20.918Z,0.80
2019-02-19T07:59:39.618Z,0.50
2019-02-19T08:02:19.317Z,0.80
2019-02-19T08:04:26.616Z,0.80
2019-02-19T08:06:39.602Z,0.67
2019-02-19T08:09:08.908Z,0.50
2019-02-19T08:11:47.230Z,0.60
2019-02-19T08:14:09.612Z,0.70
2019-02-19T08:16:25.912Z,0.50
2019-02-19T08:19:04.981Z,0.60
2019-02-19T08:21:29.653Z,0.50
2019-02-19T08:24:04.297Z,0.70
2019-02-19T08:26:13.740Z,0.50
2019-02-19T08:29:04.023Z,0.60
2019-02-19T08:34:03.282Z,0.60
2019-02-19T08:36:11.283Z,0.60
2019-02-19T08:38:19.144Z,0.60
2019-02-19T08:40:26.529Z,0.53
2019-02-19T08:42:35.156Z,0.60
2019-02-19T08:44:42.804Z,0.63
2019-02-19T08:46:51.507Z,0.67
2019-02-19T08:48:59.225Z,0.40
2019-02-19T08:51:07.260Z,0.40
2019-02-19T08:53:46.783Z,0.43
2019-02-19T08:56:02.228Z,0.70
2019-02-19T08:58:50.603Z,0.50
2019-02-19T09:00:58.809Z,0.60
2019-02-19T09:08:40.629Z,0.70
2019-02-19T09:13:32.398Z,0.50
2019-02-19T09:16:04.291Z,0.60
2019-02-19T09:18:48.110Z,0.50
2019-02-19T09:21:00.385Z,0.50
2019-02-19T09:23:17.589Z,0.60
2019-02-19T09:31:11.266Z,0.60
2019-02-19T09:33:36.650Z,0.70
2019-02-19T09:35:36.692Z,0.60
2019-02-19T09:38:31.889Z,0.50
2019-02-19T09:42:57.794Z,0.50
2019-02-19T09:45:39.471Z,0.50
2019-02-19T09:48:26.597Z,0.50
2019-02-19T09:50:43.016Z,0.50
2019-02-19T09:53:53.550Z,0.60
2019-02-19T09:56:27.692Z,0.70
2019-02-19T10:01:39.655Z,0.60
2019-02-19T10:03:55.264Z,0.60
2019-02-19T10:06:55.808Z,0.60
2019-02-19T10:09:36.137Z,0.53
2019-02-19T10:12:11.977Z,0.50
2019-02-19T10:14:18.332Z,0.70
2019-02-19T10:18:10.688Z,0.60
2019-02-19T10:19:06.993Z,0.60
2019-02-19T10:21:18.282Z,0.67
2019-02-19T10:24:16.582Z,0.60
2019-02-19T10:25:49.757Z,0.60
2019-02-19T10:28:05.643Z,0.50
2019-02-19T10:31:05.906Z,0.57
2019-02-19T10:33:01.084Z,0.50
2019-02-19T10:35:24.126Z,0.70
2019-02-19T10:38:01.249Z,0.47
2019-02-19T10:40:12.922Z,0.70
2019-02-19T10:42:49.200Z,0.70
2019-02-19T10:44:56.987Z,0.40
2019-02-19T10:47:04.411Z,0.60
2019-02-19T10:49:32.704Z,0.67
2019-02-19T10:52:15.784Z,0.63
2019-02-19T10:54:21.398Z,0.67
2019-02-19T10:56:42.488Z,0.50
2019-02-19T10:58:54.173Z,0.60
2019-02-19T11:01:01.566Z,0.60
2019-02-19T11:03:59.831Z,0.70
2019-02-19T11:05:31.482Z,0.50
2019-02-19T11:07:39.589Z,0.70
2019-02-19T11:09:46.836Z,0.57
2019-02-19T11:11:54.345Z,0.60
2019-02-19T11:14:03.255Z,0.60
2019-02-19T11:16:10.635Z,0.57
2019-02-19T11:18:18.487Z,0.80
2019-02-19T11:20:26.333Z,0.60
2019-02-19T11:22:34.354Z,0.60
2019-02-19T11:24:41.772Z,0.47
2019-02-19T11:26:48.898Z,0.60
2019-02-19T11:28:56.110Z,0.60
2019-02-19T11:31:03.580Z,0.70
2019-02-19T11:33:14.091Z,0.60
2019-02-19T11:35:20.724Z,0.83
2019-02-19T11:37:28.139Z,0.70
2019-02-19T11:40:05.911Z,0.70
2019-02-19T11:42:13.276Z,0.50
2019-02-19T11:44:20.751Z,0.50
2019-02-19T11:46:28.037Z,0.57
2019-02-19T11:48:37.149Z,0.53
2019-02-19T11:50:44.214Z,0.60
2019-02-19T11:52:51.476Z,0.50
2019-02-19T11:54:58.811Z,0.53
2019-02-19T11:57:06.211Z,0.50
2019-02-19T11:59:13.623Z,0.43
2019-02-19T12:01:21.080Z,0.60
2019-02-19T12:03:28.466Z,0.50
2019-02-19T12:05:35.569Z,0.50
2019-02-19T12:07:42.919Z,0.70
2019-02-19T12:09:50.370Z,0.67
2019-02-19T12:11:57.746Z,0.60
2019-02-19T12:14:05.081Z,0.60
2019-02-19T12:16:12.182Z,0.60
2019-02-19T12:18:19.377Z,0.60
2019-02-19T12:20:26.619Z,0.70
2019-02-19T12:22:33.954Z,0.70
2019-02-19T12:24:41.480Z,0.50
2019-02-19T12:26:49.339Z,0.70
2019-02-19T12:28:56.649Z,0.40
2019-02-19T12:31:03.809Z,0.60
2019-02-19T12:33:11.222Z,0.50
2019-02-19T12:35:18.724Z,0.50
2019-02-19T12:37:26.836Z,0.63
2019-02-19T12:39:34.742Z,0.60
2019-02-19T12:41:42.125Z,0.63
2019-02-19T12:43:51.013Z,0.57
2019-02-19T12:45:58.224Z,0.50
2019-02-19T12:48:05.582Z,0.50
2019-02-19T12:50:14.649Z,0.63
2019-02-19T12:52:21.765Z,0.40
2019-02-19T12:54:28.916Z,0.57
2019-02-19T12:56:36.213Z,0.60
2019-02-19T12:58:43.564Z,0.60
2019-02-19T13:00:51.503Z,0.40
2019-02-19T13:02:58.989Z,0.60
2019-02-19T13:05:06.441Z,0.50
2019-02-19T13:07:14.015Z,0.50
2019-02-19T13:09:21.153Z,0.50
2019-02-19T13:11:28.490Z,0.50
2019-02-19T13:13:36.569Z,0.50
2019-02-19T13:15:43.721Z,0.57
2019-02-19T13:17:51.634Z,0.80
2019-02-19T13:19:58.936Z,0.50
2019-02-19T13:22:06.255Z,0.50
2019-02-19T13:24:13.700Z,0.50
2019-02-19T13:26:21.475Z,0.47
2019-02-19T13:28:28.658Z,0.67
2019-02-19T13:30:35.969Z,0.70
2019-02-19T13:32:43.340Z,0.43
2019-02-19T13:34:50.766Z,0.50
2019-02-19T13:36:58.198Z,0.40
2019-02-19T13:39:06.623Z,0.53
2019-02-19T13:41:13.993Z,0.70
2019-02-19T13:43:24.414Z,0.50
2019-02-19T13:45:30.920Z,0.50
2019-02-19T13:47:38.316Z,0.63
2019-02-19T13:49:45.812Z,0.50
2019-02-19T13:52:04.435Z,0.50
2019-02-19T13:54:29.021Z,0.80
2019-02-19T13:57:01.248Z,0.70
2019-02-19T13:59:09.059Z,0.60
2019-02-19T14:01:16.290Z,0.70
2019-02-19T14:03:24.768Z,0.70
2019-02-19T14:05:32.725Z,0.80
2019-02-19T14:07:40.046Z,0.90
2019-02-19T14:09:47.178Z,0.90
2019-02-19T14:11:55.232Z,2.27
2019-02-19T14:14:18.903Z,1.10
2019-02-19T14:16:32.953Z,1.10
2019-02-19T14:18:51.790Z,1.40
2019-02-19T14:21:23.573Z,0.90
2019-02-19T14:24:05.129Z,1.00
2019-02-19T14:26:25.811Z,0.90
2019-02-19T14:29:10.576Z,0.97
2019-02-19T14:31:31.338Z,1.27
2019-02-19T14:34:00.261Z,1.20
2019-02-19T14:36:29.459Z,1.30
2019-02-19T14:38:58.966Z,1.30
2019-02-19T14:41:29.703Z,1.30
2019-02-19T14:44:02.078Z,1.37
2019-02-19T14:46:43.157Z,1.20
2019-02-19T14:49:13.552Z,1.60
2019-02-19T14:51:32.876Z,1.40
2019-02-19T14:54:13.410Z,1.63
2019-02-19T14:56:51.621Z,1.30
2019-02-19T14:59:20.336Z,1.50
2019-02-19T15:01:57.136Z,1.17
2019-02-19T15:04:29.840Z,1.10
2019-02-19T15:07:05.478Z,0.90
2019-02-19T15:09:49.478Z,1.10
2019-02-19T15:12:23.726Z,0.90
2019-02-19T15:14:44.871Z,1.00
2019-02-19T15:17:13.137Z,1.00
2019-02-19T15:19:55.235Z,1.00
2019-02-19T15:22:44.776Z,1.20
2019-02-19T15:25:13.361Z,1.20
2019-02-19T15:30:28.908Z,1.23
2019-02-19T15:33:08.899Z,1.53
2019-02-19T15:35:33.781Z,1.30
2019-02-19T15:38:08.810Z,1.27
2019-02-19T15:40:46.286Z,1.10
2019-02-19T15:43:26.336Z,1.10
2019-02-19T15:46:07.713Z,0.93
2019-02-19T15:48:53.350Z,1.00
2019-02-19T15:51:37.989Z,0.97
2019-02-19T15:54:11.108Z,0.97
2019-02-19T15:56:27.903Z,0.90
2019-02-19T15:59:23.125Z,1.17
2019-02-19T16:02:25.000Z,1.23
2019-02-19T16:05:08.836Z,1.93
2019-02-19T16:07:32.818Z,2.90
2019-02-19T16:10:09.246Z,2.20
2019-02-19T16:12:27.706Z,2.00
2019-02-19T16:15:02.834Z,2.30
2019-02-19T16:17:44.330Z,1.80
2019-02-19T16:23:11.797Z,2.60
2019-02-19T16:25:35.381Z,2.17
2019-02-19T16:28:07.426Z,1.70
2019-02-19T16:30:24.049Z,1.77
2019-02-19T16:32:58.567Z,2.27
2019-02-19T16:35:28.881Z,1.60
2019-02-19T16:38:01.152Z,1.90
2019-02-19T16:40:26.361Z,1.63
2019-02-19T16:43:07.236Z,1.33
2019-02-19T16:45:48.382Z,1.53
2019-02-19T16:48:19.823Z,1.60
2019-02-19T16:50:45.250Z,1.70
2019-02-19T16:53:11.277Z,1.47
2019-02-19T16:55:40.513Z,1.40
2019-02-19T16:58:14.630Z,1.73
2019-02-19T17:00:53.202Z,1.37
2019-02-19T17:03:23.349Z,1.30
2019-02-19T17:05:40.090Z,1.60
2019-02-19T17:08:17.569Z,1.93
2019-02-19T17:10:58.295Z,1.40
2019-02-19T17:13:33.818Z,1.47
2019-02-19T17:16:17.477Z,1.63
2019-02-19T17:18:49.773Z,1.13
2019-02-19T17:21:42.975Z,1.30
2019-02-19T17:24:07.685Z,1.33
2019-02-19T17:26:42.660Z,1.27
2019-02-19T17:29:13.440Z,1.73
2019-02-19T17:31:44.472Z,1.43
2019-02-19T17:34:17.624Z,1.20
2019-02-19T17:36:49.118Z,1.20
2019-02-19T17:39:25.021Z,1.60
2019-02-19T17:41:57.041Z,1.40
2019-02-19T17:44:11.444Z,0.80
2019-02-19T17:46:40.379Z,1.10
2019-02-19T17:49:22.302Z,1.10
2019-02-19T17:51:58.707Z,0.93
2019-02-19T17:54:23.249Z,0.90
2019-02-19T17:56:51.303Z,1.30
2019-02-19T17:59:30.934Z,0.90
2019-02-19T18:01:48.327Z,0.77
2019-02-19T18:04:17.330Z,1.27
2019-02-19T18:06:34.441Z,0.90
2019-02-19T18:08:49.334Z,0.80
2019-02-19T18:11:19.949Z,0.70
2019-02-19T18:13:42.813Z,0.80
2019-02-19T18:16:16.287Z,0.90
2019-02-19T18:18:45.181Z,0.80
2019-02-19T18:20:59.165Z,1.00
2019-02-19T18:23:07.759Z,0.80
2019-02-19T18:25:26.417Z,1.10
2019-02-19T18:27:46.879Z,1.10
2019-02-19T18:29:54.501Z,1.00
2019-02-19T18:32:01.758Z,1.03
2019-02-19T18:34:09.070Z,0.80
2019-02-19T18:36:18.055Z,0.97
2019-02-19T18:38:37.286Z,1.20
2019-02-19T18:40:45.275Z,1.17
2019-02-19T18:45:37.493Z,1.00
2019-02-19T18:48:00.266Z,0.90
2019-02-19T18:50:14.572Z,0.70
2019-02-19T18:52:27.532Z,0.80
2019-02-19T18:54:35.149Z,0.90
2019-02-19T18:56:49.962Z,0.80
2019-02-19T18:59:02.910Z,0.80
2019-02-19T19:01:15.122Z,1.17
2019-02-19T19:03:27.061Z,0.80
2019-02-19T19:05:38.434Z,1.10
2019-02-19T19:07:59.649Z,0.70
2019-02-19T19:10:52.084Z,0.93
2019-02-19T19:12:50.315Z,1.00
2019-02-19T19:15:14.305Z,1.17
2019-02-19T19:17:46.640Z,1.00
2019-02-19T19:20:10.816Z,1.00
2019-02-19T19:22:23.793Z,0.90
2019-02-19T19:24:31.169Z,1.07
2019-02-19T19:26:46.295Z,1.07
2019-02-19T19:28:57.624Z,0.93
2019-02-19T19:31:15.123Z,0.90
2019-02-19T19:33:31.981Z,0.87
2019-02-19T19:35:41.794Z,0.60
2019-02-19T19:37:54.748Z,0.70
2019-02-19T19:40:17.151Z,0.90
2019-02-19T19:42:28.567Z,0.80
2019-02-19T19:44:35.829Z,0.70
2019-02-19T19:47:11.727Z,0.80
2019-02-19T19:49:24.921Z,0.70
2019-02-19T19:51:35.415Z,0.97
2019-02-19T19:53:44.152Z,0.90
2019-02-19T19:55:57.475Z,0.70
2019-02-19T19:58:16.667Z,0.60
2019-02-19T20:00:41.250Z,0.83
2019-02-19T20:02:55.582Z,0.77
2019-02-19T20:05:04.435Z,0.70
2019-02-19T20:07:12.099Z,0.60
2019-02-19T20:09:27.758Z,0.80
2019-02-19T20:11:44.765Z,0.80
2019-02-19T20:13:59.361Z,0.80
2019-02-19T20:16:27.646Z,0.63
2019-02-19T20:18:39.360Z,0.70
2019-02-19T20:20:47.375Z,0.53
2019-02-19T20:22:54.611Z,0.60
2019-02-19T20:25:14.867Z,0.60
2019-02-19T20:27:28.277Z,0.77
2019-02-19T20:29:47.146Z,0.70
2019-02-19T20:31:54.530Z,0.63
2019-02-19T20:34:02.574Z,0.50
2019-02-19T20:36:12.661Z,0.90
2019-02-19T20:38:25.403Z,0.70
2019-02-19T20:40:36.498Z,0.50
2019-02-19T20:42:43.813Z,0.60
2019-02-19T20:44:52.163Z,0.60
2019-02-19T20:46:59.867Z,0.70
2019-02-19T20:49:07.124Z,0.80
2019-02-19T20:51:15.788Z,0.70
2019-02-19T20:53:28.985Z,0.70
2019-02-19T20:55:38.134Z,0.80
2019-02-19T20:57:45.552Z,0.60
2019-02-19T20:59:53.406Z,0.60
2019-02-19T21:02:00.639Z,0.50
2019-02-19T21:04:07.809Z,0.80
2019-02-19T21:06:16.021Z,0.70
2019-02-19T21:08:31.310Z,0.50
2019-02-19T21:10:39.030Z,0.60
2019-02-19T21:12:45.860Z,0.57
2019-02-19T21:14:52.818Z,0.67
2019-02-19T21:17:00.194Z,0.50
2019-02-19T21:19:07.551Z,0.53
2019-02-19T21:21:14.755Z,0.73
2019-02-19T21:23:22.092Z,0.50
2019-02-19T21:25:31.237Z,0.70
2019-02-19T21:27:42.923Z,0.60
2019-02-19T21:29:51.176Z,0.60
2019-02-19T21:31:59.126Z,0.60
2019-02-19T21:34:11.564Z,0.77
2019-02-19T21:36:18.583Z,1.10
2019-02-19T21:38:59.422Z,0.60
2019-02-19T21:41:07.882Z,0.50
2019-02-19T21:43:16.029Z,0.60
2019-02-19T21:45:23.756Z,0.70
2019-02-19T21:47:32.170Z,0.80
2019-02-19T21:49:39.539Z,0.63
2019-02-19T21:51:53.978Z,0.63
2019-02-19T21:53:55.813Z,0.60
2019-02-19T21:56:05.627Z,0.60
2019-02-19T21:58:12.939Z,0.73
2019-02-19T22:00:20.963Z,0.70
2019-02-19T22:02:29.212Z,0.70
2019-02-19T22:04:36.939Z,0.60
2019-02-19T22:06:44.273Z,0.50
2019-02-19T22:08:53.615Z,0.80
2019-02-19T22:11:02.782Z,0.67
2019-02-19T22:13:12.902Z,0.70
2019-02-19T22:15:29.315Z,0.60
2019-02-19T22:18:07.016Z,0.50
2019-02-19T22:20:39.058Z,0.60
2019-02-19T22:22:56.794Z,0.47
2019-02-19T22:25:09.313Z,0.50
2019-02-19T22:27:22.448Z,0.50
2019-02-19T22:29:37.885Z,0.60
2019-02-19T22:31:50.830Z,0.50
2019-02-19T22:34:10.764Z,0.80
2019-02-19T22:36:20.070Z,0.80
2019-02-19T22:38:28.255Z,0.93
2019-02-19T22:40:36.139Z,0.90
2019-02-19T22:42:43.219Z,1.00
2019-02-19T22:44:54.992Z,1.00
2019-02-19T22:47:04.961Z,1.10
2019-02-19T22:49:23.741Z,0.90
2019-02-19T22:51:34.840Z,0.60
2019-02-19T22:53:53.185Z,0.60
2019-02-19T22:56:06.855Z,0.80
2019-02-19T22:58:29.697Z,0.97
2019-02-19T23:00:57.641Z,0.90
2019-02-19T23:03:06.889Z,1.10
2019-02-19T23:05:14.040Z,0.87
2019-02-19T23:07:22.164Z,0.77
2019-02-19T23:09:29.979Z,0.70
2019-02-19T23:11:38.052Z,0.60
2019-02-19T23:13:45.906Z,0.50
2019-02-19T23:15:52.914Z,0.90
2019-02-19T23:18:00.159Z,1.00
2019-02-19T23:20:08.153Z,1.33
2019-02-19T23:22:21.715Z,1.30
2019-02-19T23:24:25.603Z,0.93
2019-02-19T23:26:35.857Z,1.00
2019-02-19T23:28:45.046Z,0.90
2019-02-19T23:30:53.192Z,0.80
2019-02-19T23:33:05.362Z,0.80
2019-02-19T23:35:28.685Z,0.70
2019-02-19T23:37:40.083Z,0.77
2019-02-19T23:39:59.314Z,3.13
2019-02-19T23:42:26.430Z,4.30
2019-02-19T23:44:34.643Z,1.17
2019-02-19T23:46:49.885Z,1.80
2019-02-19T23:49:01.262Z,1.67
2019-02-19T23:51:10.912Z,1.37
2019-02-19T23:53:21.280Z,1.77
2019-02-19T23:55:31.543Z,1.70
2019-02-19T23:57:39.413Z,1.70
2019-02-19T23:59:46.789Z,1.60
